createdAt,value
2022-09-14T00:00:33.250Z,974.87
2022-09-14T00:01:33.307Z,974.87
2022-09-14T00:02:33.382Z,974.84
2022-09-14T00:03:33.249Z,974.84
2022-09-14T00:04:33.219Z,974.83
2022-09-14T00:05:33.203Z,974.86
2022-09-14T00:06:33.202Z,974.86
2022-09-14T00:07:33.183Z,974.82
2022-09-14T00:08:33.170Z,974.87
2022-09-14T00:09:33.148Z,974.80
2022-09-14T00:10:33.132Z,974.80
2022-09-14T00:11:33.119Z,974.77
2022-09-14T00:12:33.143Z,974.76
2022-09-14T00:13:33.104Z,974.83
2022-09-14T00:14:33.093Z,974.81
2022-09-14T00:15:33.093Z,974.78
2022-09-14T00:16:33.151Z,974.86
2022-09-14T00:17:33.064Z,974.85
2022-09-14T00:18:33.064Z,974.91
2022-09-14T00:19:33.055Z,974.85
2022-09-14T00:20:33.046Z,974.80
2022-09-14T00:21:33.035Z,974.82
2022-09-14T00:22:33.025Z,974.77
2022-09-14T00:23:32.986Z,974.73
2022-09-14T00:24:32.996Z,974.73
2022-09-14T00:25:32.986Z,974.73
2022-09-14T00:26:32.968Z,974.67
2022-09-14T00:27:32.965Z,974.63
2022-09-14T00:28:32.967Z,974.61
2022-09-14T00:29:32.937Z,974.57
2022-09-14T00:30:32.937Z,974.51
2022-09-14T00:31:32.958Z,974.50
2022-09-14T00:32:32.918Z,974.47
2022-09-14T00:33:32.907Z,974.49
2022-09-14T00:34:32.896Z,974.39
2022-09-14T00:35:32.860Z,974.38
2022-09-14T00:36:32.870Z,974.37
2022-09-14T00:37:32.850Z,974.41
2022-09-14T00:38:32.850Z,974.38
2022-09-14T00:39:32.821Z,974.39
2022-09-14T00:40:32.908Z,974.36
2022-09-14T00:41:32.815Z,974.35
2022-09-14T00:42:32.791Z,974.31
2022-09-14T00:43:32.782Z,974.36
2022-09-14T00:44:32.772Z,974.31
2022-09-14T00:45:32.810Z,974.33
2022-09-14T00:46:32.743Z,974.32
2022-09-14T00:47:32.740Z,974.33
2022-09-14T00:48:32.740Z,974.33
2022-09-14T00:49:32.703Z,974.31
2022-09-14T00:50:32.704Z,974.25
2022-09-14T00:51:32.683Z,974.29
2022-09-14T00:52:32.703Z,974.25
2022-09-14T00:53:32.694Z,974.24
2022-09-14T00:54:32.693Z,974.27
2022-09-14T00:55:32.647Z,974.22
2022-09-14T00:56:32.637Z,974.19
2022-09-14T00:57:32.623Z,974.19
2022-09-14T00:58:32.624Z,974.14
2022-09-14T00:59:32.616Z,974.14
2022-09-14T01:00:32.626Z,974.19
2022-09-14T01:01:32.627Z,974.20
2022-09-14T01:02:32.642Z,974.14
2022-09-14T01:03:32.574Z,974.14
2022-09-14T01:04:32.567Z,974.09
2022-09-14T01:05:32.565Z,974.10
2022-09-14T01:06:32.536Z,974.00
2022-09-14T01:07:32.548Z,973.97
2022-09-14T01:08:32.527Z,973.88
2022-09-14T01:09:32.490Z,973.88
2022-09-14T01:10:32.491Z,973.83
2022-09-14T01:11:32.480Z,973.88
2022-09-14T01:12:32.468Z,973.86
2022-09-14T01:13:32.459Z,973.87
2022-09-14T01:14:32.461Z,973.88
2022-09-14T01:15:32.446Z,973.80
2022-09-14T01:16:32.484Z,973.75
2022-09-14T01:17:32.420Z,973.65
2022-09-14T01:18:32.402Z,973.70
2022-09-14T01:19:32.391Z,973.67
2022-09-14T01:20:32.383Z,973.73
2022-09-14T01:21:32.374Z,973.74
2022-09-14T01:22:32.372Z,973.71
2022-09-14T01:23:32.343Z,973.76
2022-09-14T01:24:32.342Z,973.84
2022-09-14T01:25:32.334Z,973.96
2022-09-14T01:26:32.374Z,973.97
2022-09-14T01:27:32.306Z,974.12
2022-09-14T01:28:32.312Z,974.28
2022-09-14T01:29:32.273Z,974.47
2022-09-14T01:30:32.285Z,974.84
2022-09-14T01:31:32.310Z,974.94
2022-09-14T01:32:32.262Z,974.94
2022-09-14T01:33:32.243Z,974.92
2022-09-14T01:34:32.235Z,974.98
2022-09-14T01:35:32.216Z,975.02
2022-09-14T01:36:32.196Z,974.93
2022-09-14T01:37:32.216Z,974.93
2022-09-14T01:38:32.199Z,974.94
2022-09-14T01:39:32.177Z,975.10
2022-09-14T01:40:32.186Z,974.99
2022-09-14T01:41:32.147Z,974.99
2022-09-14T01:42:32.128Z,974.94
2022-09-14T01:43:36.167Z,974.82
2022-09-14T01:44:32.119Z,974.86
2022-09-14T01:45:32.136Z,974.82
2022-09-14T01:46:32.080Z,974.66
2022-09-14T01:47:32.093Z,974.78
2022-09-14T01:48:32.094Z,974.87
2022-09-14T01:49:32.060Z,974.82
2022-09-14T01:50:32.064Z,974.93
2022-09-14T01:51:32.076Z,974.85
2022-09-14T01:52:32.035Z,974.92
2022-09-14T01:53:32.033Z,974.94
2022-09-14T01:54:32.026Z,974.85
2022-09-14T01:55:32.005Z,974.85
2022-09-14T01:56:32.555Z,974.77
2022-09-14T01:57:31.985Z,974.82
2022-09-14T01:58:31.987Z,974.81
2022-09-14T01:59:31.968Z,974.88
2022-09-14T02:00:32.037Z,974.87
2022-09-14T02:01:31.947Z,974.99
2022-09-14T02:02:31.998Z,975.00
2022-09-14T02:03:31.926Z,975.06
2022-09-14T02:04:31.916Z,975.12
2022-09-14T02:05:31.882Z,975.14
2022-09-14T02:06:31.888Z,975.17
2022-09-14T02:07:31.851Z,975.23
2022-09-14T02:08:31.891Z,975.17
2022-09-14T02:09:31.860Z,975.16
2022-09-14T02:10:31.830Z,975.17
2022-09-14T02:11:31.841Z,975.16
2022-09-14T02:12:31.829Z,975.14
2022-09-14T02:13:31.829Z,975.12
2022-09-14T02:14:31.831Z,975.16
2022-09-14T02:15:31.808Z,975.15
2022-09-14T02:16:31.885Z,975.08
2022-09-14T02:17:31.760Z,975.20
2022-09-14T02:18:31.770Z,975.18
2022-09-14T02:19:31.741Z,975.21
2022-09-14T02:20:31.759Z,975.14
2022-09-14T02:21:31.731Z,975.15
2022-09-14T02:22:31.732Z,975.14
2022-09-14T02:23:31.694Z,975.16
2022-09-14T02:24:31.670Z,975.15
2022-09-14T02:25:31.693Z,975.10
2022-09-14T02:26:31.691Z,975.09
2022-09-14T02:27:31.663Z,975.05
2022-09-14T02:28:31.664Z,974.93
2022-09-14T02:29:31.645Z,975.00
2022-09-14T02:30:31.633Z,974.90
2022-09-14T02:31:31.677Z,974.95
2022-09-14T02:32:31.634Z,975.03
2022-09-14T02:33:31.595Z,975.00
2022-09-14T02:34:31.559Z,975.04
2022-09-14T02:35:31.556Z,975.02
2022-09-14T02:36:31.576Z,974.97
2022-09-14T02:37:31.556Z,975.06
2022-09-14T02:38:31.575Z,975.09
2022-09-14T02:39:31.501Z,975.05
2022-09-14T02:40:31.595Z,975.06
2022-09-14T02:41:31.510Z,975.01
2022-09-14T02:42:31.517Z,975.04
2022-09-14T02:43:31.464Z,975.03
2022-09-14T02:44:31.488Z,975.08
2022-09-14T02:45:31.469Z,975.11
2022-09-14T02:46:31.499Z,975.13
2022-09-14T02:47:31.468Z,975.17
2022-09-14T02:48:31.416Z,975.11
2022-09-14T02:49:31.439Z,975.15
2022-09-14T02:50:31.438Z,975.17
2022-09-14T02:51:31.410Z,975.20
2022-09-14T02:52:31.374Z,975.15
2022-09-14T02:53:31.400Z,975.21
2022-09-14T02:54:31.394Z,975.10
2022-09-14T02:55:31.369Z,975.09
2022-09-14T02:56:31.337Z,975.03
2022-09-14T02:57:31.314Z,975.02
2022-09-14T02:58:31.330Z,975.01
2022-09-14T02:59:31.353Z,974.98
2022-09-14T03:00:31.385Z,975.02
2022-09-14T03:01:31.352Z,974.98
2022-09-14T03:02:31.304Z,975.00
2022-09-14T03:03:35.486Z,974.89
2022-09-14T03:04:31.258Z,974.77
2022-09-14T03:05:31.230Z,974.78
2022-09-14T03:06:31.259Z,974.73
2022-09-14T03:07:31.224Z,974.79
2022-09-14T03:08:31.241Z,974.74
2022-09-14T03:09:31.227Z,974.84
2022-09-14T03:10:31.225Z,974.85
2022-09-14T03:11:31.185Z,974.77
2022-09-14T03:12:31.192Z,974.72
2022-09-14T03:13:31.185Z,974.71
2022-09-14T03:14:31.176Z,974.77
2022-09-14T03:15:31.170Z,974.70
2022-09-14T03:16:31.203Z,974.68
2022-09-14T03:17:31.127Z,974.71
2022-09-14T03:18:31.113Z,974.67
2022-09-14T03:19:31.126Z,974.72
2022-09-14T03:20:31.108Z,974.73
2022-09-14T03:21:31.088Z,974.68
2022-09-14T03:22:31.080Z,974.63
2022-09-14T03:23:31.079Z,974.63
2022-09-14T03:24:31.043Z,974.58
2022-09-14T03:25:31.059Z,974.52
2022-09-14T03:26:31.004Z,974.60
2022-09-14T03:27:31.029Z,974.58
2022-09-14T03:28:31.039Z,974.61
2022-09-14T03:29:30.999Z,974.69
2022-09-14T03:30:30.988Z,974.57
2022-09-14T03:31:31.006Z,974.62
2022-09-14T03:32:30.955Z,974.51
2022-09-14T03:33:30.978Z,974.44
2022-09-14T03:34:30.970Z,974.32
2022-09-14T03:35:30.931Z,974.34
2022-09-14T03:36:30.979Z,974.39
2022-09-14T03:37:30.930Z,974.40
2022-09-14T03:38:30.905Z,974.49
2022-09-14T03:39:30.902Z,974.48
2022-09-14T03:40:31.022Z,974.51
2022-09-14T03:41:30.896Z,974.41
2022-09-14T03:42:30.872Z,974.50
2022-09-14T03:43:30.864Z,974.53
2022-09-14T03:44:30.854Z,974.56
2022-09-14T03:45:30.825Z,974.54
2022-09-14T03:46:30.888Z,974.49
2022-09-14T03:47:30.825Z,974.45
2022-09-14T03:48:30.835Z,974.41
2022-09-14T03:49:30.777Z,974.44
2022-09-14T03:50:30.750Z,974.44
2022-09-14T03:51:30.765Z,974.41
2022-09-14T03:52:30.767Z,974.38
2022-09-14T03:53:30.766Z,974.28
2022-09-14T03:54:30.746Z,974.24
2022-09-14T03:55:30.704Z,974.22
2022-09-14T03:56:30.717Z,974.19
2022-09-14T03:57:30.699Z,974.22
2022-09-14T03:58:30.705Z,974.19
2022-09-14T03:59:30.715Z,974.23
2022-09-14T04:00:30.668Z,974.24
2022-09-14T04:01:30.678Z,974.19
2022-09-14T04:02:30.751Z,974.21
2022-09-14T04:03:30.603Z,974.16
2022-09-14T04:04:30.650Z,974.18
2022-09-14T04:05:30.642Z,974.30
2022-09-14T04:06:30.595Z,974.15
2022-09-14T04:07:30.600Z,974.14
2022-09-14T04:08:30.592Z,974.12
2022-09-14T04:09:30.579Z,974.06
2022-09-14T04:10:30.568Z,974.13
2022-09-14T04:11:30.571Z,974.10
2022-09-14T04:12:30.552Z,974.11
2022-09-14T04:13:30.541Z,974.13
2022-09-14T04:14:30.509Z,974.11
2022-09-14T04:15:30.512Z,974.08
2022-09-14T04:16:30.548Z,974.01
2022-09-14T04:17:30.475Z,974.06
2022-09-14T04:18:30.475Z,974.03
2022-09-14T04:19:30.486Z,974.03
2022-09-14T04:20:30.463Z,973.94
2022-09-14T04:21:30.442Z,973.86
2022-09-14T04:22:30.444Z,973.85
2022-09-14T04:23:30.432Z,973.77
2022-09-14T04:24:31.020Z,973.72
2022-09-14T04:25:30.415Z,973.81
2022-09-14T04:26:30.395Z,973.88
2022-09-14T04:27:30.367Z,973.96
2022-09-14T04:28:30.373Z,973.92
2022-09-14T04:29:30.367Z,973.91
2022-09-14T04:30:30.349Z,973.89
2022-09-14T04:31:30.522Z,973.85
2022-09-14T04:32:34.179Z,973.89
2022-09-14T04:33:30.329Z,973.97
2022-09-14T04:34:30.316Z,973.99
2022-09-14T04:35:30.287Z,973.91
2022-09-14T04:36:30.278Z,973.92
2022-09-14T04:37:30.278Z,973.86
2022-09-14T04:38:30.802Z,973.86
2022-09-14T04:39:30.264Z,973.82
2022-09-14T04:40:30.268Z,973.83
2022-09-14T04:41:30.221Z,973.85
2022-09-14T04:42:30.237Z,973.83
2022-09-14T04:43:30.211Z,973.83
2022-09-14T04:44:30.178Z,973.92
2022-09-14T04:45:30.179Z,973.88
2022-09-14T04:46:30.252Z,973.91
2022-09-14T04:47:30.180Z,973.95
2022-09-14T04:48:30.161Z,973.99
2022-09-14T04:49:30.152Z,973.96
2022-09-14T04:50:30.138Z,973.94
2022-09-14T04:51:30.123Z,974.00
2022-09-14T04:52:30.111Z,974.00
2022-09-14T04:53:30.075Z,974.07
2022-09-14T04:54:30.123Z,974.03
2022-09-14T04:55:30.057Z,974.03
2022-09-14T04:56:30.058Z,974.00
2022-09-14T04:57:30.054Z,973.85
2022-09-14T04:58:30.054Z,973.98
2022-09-14T04:59:30.044Z,974.08
2022-09-14T05:00:30.024Z,974.08
2022-09-14T05:01:30.039Z,973.99
2022-09-14T05:02:30.073Z,974.05
2022-09-14T05:03:30.015Z,973.99
2022-09-14T05:04:29.994Z,974.04
2022-09-14T05:05:29.955Z,974.06
2022-09-14T05:06:29.956Z,974.09
2022-09-14T05:07:29.967Z,974.07
2022-09-14T05:08:29.948Z,974.02
2022-09-14T05:09:29.948Z,974.04
2022-09-14T05:10:29.917Z,974.03
2022-09-14T05:11:29.890Z,974.04
2022-09-14T05:12:29.999Z,974.03
2022-09-14T05:13:29.878Z,974.09
2022-09-14T05:14:29.898Z,974.10
2022-09-14T05:15:29.868Z,974.21
2022-09-14T05:16:29.951Z,974.43
2022-09-14T05:17:29.822Z,974.52
2022-09-14T05:18:29.869Z,974.57
2022-09-14T05:19:29.827Z,974.48
2022-09-14T05:20:29.783Z,974.37
2022-09-14T05:21:29.810Z,974.34
2022-09-14T05:22:29.811Z,974.40
2022-09-14T05:23:29.871Z,974.46
2022-09-14T05:24:29.780Z,974.50
2022-09-14T05:25:29.767Z,974.49
2022-09-14T05:26:29.771Z,974.46
2022-09-14T05:27:29.762Z,974.45
2022-09-14T05:28:29.695Z,974.56
2022-09-14T05:29:29.745Z,974.57
2022-09-14T05:30:29.686Z,974.54
2022-09-14T05:31:29.811Z,974.56
2022-09-14T05:32:29.722Z,974.57
2022-09-14T05:33:29.663Z,974.58
2022-09-14T05:34:29.762Z,974.63
2022-09-14T05:35:30.062Z,974.71
2022-09-14T05:36:29.675Z,974.64
2022-09-14T05:37:29.665Z,974.60
2022-09-14T05:38:29.630Z,974.64
2022-09-14T05:39:29.635Z,974.62
2022-09-14T05:40:29.678Z,974.57
2022-09-14T05:41:29.585Z,974.54
2022-09-14T05:42:29.575Z,974.48
2022-09-14T05:43:29.571Z,974.41
2022-09-14T05:44:29.554Z,974.44
2022-09-14T05:45:29.532Z,974.56
2022-09-14T05:46:29.566Z,974.48
2022-09-14T05:47:29.538Z,974.41
2022-09-14T05:48:29.516Z,974.48
2022-09-14T05:49:29.517Z,974.48
2022-09-14T05:50:29.514Z,974.47
2022-09-14T05:51:29.481Z,974.44
2022-09-14T05:52:29.461Z,974.36
2022-09-14T05:53:29.478Z,974.37
2022-09-14T05:54:29.478Z,974.37
2022-09-14T05:55:29.446Z,974.34
2022-09-14T05:56:29.437Z,974.35
2022-09-14T05:57:29.425Z,974.26
2022-09-14T05:58:29.421Z,974.24
2022-09-14T05:59:29.419Z,974.24
2022-09-14T06:00:29.374Z,974.16
2022-09-14T06:01:29.459Z,974.15
2022-09-14T06:02:29.360Z,974.16
2022-09-14T06:03:29.377Z,974.13
2022-09-14T06:04:29.351Z,974.15
2022-09-14T06:05:29.358Z,974.13
2022-09-14T06:06:29.350Z,974.15
2022-09-14T06:07:29.303Z,974.02
2022-09-14T06:08:29.292Z,974.04
2022-09-14T06:09:33.086Z,974.04
2022-09-14T06:10:29.266Z,974.19
2022-09-14T06:11:29.273Z,974.15
2022-09-14T06:12:29.273Z,974.18
2022-09-14T06:13:29.309Z,974.27
2022-09-14T06:14:29.235Z,974.23
2022-09-14T06:15:29.228Z,974.24
2022-09-14T06:16:29.266Z,974.26
2022-09-14T06:17:29.242Z,974.27
2022-09-14T06:18:30.658Z,974.30
2022-09-14T06:19:29.187Z,974.33
2022-09-14T06:20:30.357Z,974.32
2022-09-14T06:21:29.176Z,974.34
2022-09-14T06:22:29.865Z,974.38
2022-09-14T06:23:29.162Z,974.37
2022-09-14T06:24:30.148Z,974.36
2022-09-14T06:25:29.157Z,974.36
2022-09-14T06:26:30.729Z,974.37
2022-09-14T06:27:29.124Z,974.45
2022-09-14T06:28:30.121Z,974.42
2022-09-14T06:29:29.062Z,974.45
2022-09-14T06:30:29.837Z,974.40
2022-09-14T06:31:29.069Z,974.41
2022-09-14T06:32:29.107Z,974.39
2022-09-14T06:33:29.039Z,974.38
2022-09-14T06:34:29.004Z,974.38
2022-09-14T06:35:29.010Z,974.33
2022-09-14T06:36:28.998Z,974.35
2022-09-14T06:37:29.010Z,974.35
2022-09-14T06:38:28.981Z,974.31
2022-09-14T06:39:28.963Z,974.25
2022-09-14T06:40:28.997Z,974.29
2022-09-14T06:41:28.966Z,974.22
2022-09-14T06:42:28.943Z,974.25
2022-09-14T06:43:28.926Z,974.23
2022-09-14T06:44:28.923Z,974.24
2022-09-14T06:45:28.935Z,974.20
2022-09-14T06:46:28.892Z,974.21
2022-09-14T06:47:28.855Z,974.14
2022-09-14T06:48:28.904Z,974.12
2022-09-14T06:49:28.863Z,974.09
2022-09-14T06:50:28.834Z,974.10
2022-09-14T06:51:28.856Z,974.08
2022-09-14T06:52:33.554Z,974.06
2022-09-14T06:53:29.815Z,974.05
2022-09-14T06:54:28.815Z,974.09
2022-09-14T06:55:28.824Z,974.10
2022-09-14T06:56:28.776Z,974.04
2022-09-14T06:57:28.765Z,974.07
2022-09-14T06:58:28.767Z,973.98
2022-09-14T06:59:28.762Z,973.98
2022-09-14T07:00:28.701Z,974.04
2022-09-14T07:01:28.741Z,973.95
2022-09-14T07:02:28.900Z,973.96
2022-09-14T07:03:28.747Z,974.03
2022-09-14T07:04:28.689Z,973.98
2022-09-14T07:05:28.717Z,973.97
2022-09-14T07:06:28.670Z,973.94
2022-09-14T07:07:28.661Z,973.95
2022-09-14T07:08:28.660Z,973.94
2022-09-14T07:09:28.643Z,973.93
2022-09-14T07:10:28.594Z,973.96
2022-09-14T07:11:28.630Z,973.98
2022-09-14T07:12:28.610Z,974.01
2022-09-14T07:13:28.602Z,974.08
2022-09-14T07:14:32.241Z,973.98
2022-09-14T07:15:28.592Z,974.05
2022-09-14T07:16:28.576Z,974.12
2022-09-14T07:17:28.544Z,974.06
2022-09-14T07:18:28.532Z,974.15
2022-09-14T07:19:28.542Z,974.12
2022-09-14T07:20:28.539Z,974.16
2022-09-14T07:21:28.509Z,974.17
2022-09-14T07:22:28.482Z,974.23
2022-09-14T07:23:28.483Z,974.26
2022-09-14T07:24:28.446Z,974.24
2022-09-14T07:25:28.524Z,974.21
2022-09-14T07:26:28.434Z,974.23
2022-09-14T07:27:28.434Z,974.28
2022-09-14T07:28:28.446Z,974.30
2022-09-14T07:29:28.417Z,974.24
2022-09-14T07:30:28.455Z,974.25
2022-09-14T07:31:28.523Z,974.23
2022-09-14T07:32:28.349Z,974.16
2022-09-14T07:33:28.366Z,974.23
2022-09-14T07:34:28.359Z,974.21
2022-09-14T07:35:28.346Z,974.19
2022-09-14T07:36:31.587Z,974.22
2022-09-14T07:37:29.314Z,974.23
2022-09-14T07:38:48.576Z,974.18
2022-09-14T07:39:29.987Z,974.16
2022-09-14T07:40:28.414Z,974.19
2022-09-14T07:41:28.991Z,974.14
2022-09-14T07:42:28.283Z,974.22
2022-09-14T07:43:28.969Z,974.18
2022-09-14T07:44:28.262Z,974.17
2022-09-14T07:45:28.520Z,974.26
2022-09-14T07:46:28.321Z,974.25
2022-09-14T07:47:29.280Z,974.35
2022-09-14T07:48:28.241Z,974.29
2022-09-14T07:49:28.930Z,974.25
2022-09-14T07:50:28.197Z,974.28
2022-09-14T07:51:28.281Z,974.30
2022-09-14T07:52:28.182Z,974.28
2022-09-14T07:53:28.362Z,974.31
2022-09-14T07:54:28.172Z,974.25
2022-09-14T07:55:28.155Z,974.31
2022-09-14T07:56:28.131Z,974.24
2022-09-14T07:57:52.293Z,974.28
2022-09-14T07:58:29.111Z,974.28
2022-09-14T07:59:36.935Z,974.21
2022-09-14T08:00:29.064Z,974.30
2022-09-14T08:01:28.092Z,974.32
2022-09-14T08:02:28.148Z,974.32
2022-09-14T08:03:28.046Z,974.37
2022-09-14T08:04:28.055Z,974.33
2022-09-14T08:05:28.033Z,974.38
2022-09-14T08:06:28.006Z,974.36
2022-09-14T08:07:28.024Z,974.35
2022-09-14T08:08:28.009Z,974.34
2022-09-14T08:09:27.997Z,974.39
2022-09-14T08:10:27.976Z,974.45
2022-09-14T08:11:27.947Z,974.43
2022-09-14T08:12:27.958Z,974.46
2022-09-14T08:13:27.957Z,974.54
2022-09-14T08:14:27.949Z,974.54
2022-09-14T08:15:28.737Z,974.56
2022-09-14T08:16:27.961Z,974.54
2022-09-14T08:17:27.920Z,974.58
2022-09-14T08:18:27.881Z,974.55
2022-09-14T08:19:27.870Z,974.61
2022-09-14T08:20:27.846Z,974.59
2022-09-14T08:21:27.850Z,974.57
2022-09-14T08:22:27.850Z,974.55
2022-09-14T08:23:27.839Z,974.55
2022-09-14T08:24:27.840Z,974.54
2022-09-14T08:25:27.801Z,974.53
2022-09-14T08:26:27.782Z,974.50
2022-09-14T08:27:27.829Z,974.60
2022-09-14T08:28:27.772Z,974.58
2022-09-14T08:29:27.791Z,974.65
2022-09-14T08:30:27.737Z,974.73
2022-09-14T08:31:27.787Z,974.73
2022-09-14T08:32:27.763Z,974.84
2022-09-14T08:33:27.734Z,974.79
2022-09-14T08:34:27.735Z,974.78
2022-09-14T08:35:56.145Z,974.78
2022-09-14T08:36:28.674Z,974.73
2022-09-14T08:37:27.695Z,974.77
2022-09-14T08:38:27.706Z,974.77
2022-09-14T08:39:27.687Z,974.76
2022-09-14T08:40:27.721Z,974.73
2022-09-14T08:41:27.626Z,974.69
2022-09-14T08:42:27.616Z,974.68
2022-09-14T08:43:27.627Z,974.74
2022-09-14T08:44:27.627Z,974.72
2022-09-14T08:45:27.637Z,974.81
2022-09-14T08:46:27.578Z,974.93
2022-09-14T08:47:27.587Z,974.97
2022-09-14T08:48:27.554Z,974.93
2022-09-14T08:49:27.620Z,974.99
2022-09-14T08:50:27.623Z,975.15
2022-09-14T08:51:27.632Z,975.11
2022-09-14T08:52:28.549Z,975.08
2022-09-14T08:53:27.557Z,975.26
2022-09-14T08:54:28.202Z,975.21
2022-09-14T08:55:27.520Z,975.26
2022-09-14T08:56:27.601Z,975.28
2022-09-14T08:57:27.445Z,975.28
2022-09-14T08:58:28.664Z,975.27
2022-09-14T08:59:27.435Z,975.14
2022-09-14T09:00:28.102Z,975.08
2022-09-14T09:01:27.467Z,975.08
2022-09-14T09:02:27.897Z,975.00
2022-09-14T09:03:27.502Z,974.99
2022-09-14T09:04:27.445Z,974.85
2022-09-14T09:05:27.394Z,974.78
2022-09-14T09:06:27.411Z,974.76
2022-09-14T09:07:27.362Z,974.77
2022-09-14T09:08:27.376Z,974.69
2022-09-14T09:09:27.373Z,974.72
2022-09-14T09:10:27.327Z,974.77
2022-09-14T09:11:27.449Z,974.79
2022-09-14T09:12:27.297Z,974.72
2022-09-14T09:13:27.316Z,974.74
2022-09-14T09:14:27.276Z,974.72
2022-09-14T09:15:27.278Z,974.79
2022-09-14T09:16:27.319Z,974.78
2022-09-14T09:17:27.246Z,974.82
2022-09-14T09:18:27.258Z,974.76
2022-09-14T09:19:28.829Z,974.81
2022-09-14T09:20:27.202Z,974.84
2022-09-14T09:21:27.199Z,974.83
2022-09-14T09:22:27.192Z,974.98
2022-09-14T09:23:27.209Z,974.95
2022-09-14T09:24:27.161Z,974.97
2022-09-14T09:25:27.181Z,974.96
2022-09-14T09:26:27.152Z,974.94
2022-09-14T09:27:27.139Z,975.00
2022-09-14T09:28:27.118Z,974.95
2022-09-14T09:29:27.122Z,975.00
2022-09-14T09:30:27.096Z,974.88
2022-09-14T09:31:27.140Z,975.00
2022-09-14T09:32:27.104Z,974.96
2022-09-14T09:33:27.092Z,974.97
2022-09-14T09:34:27.062Z,974.94
2022-09-14T09:35:27.071Z,974.94
2022-09-14T09:36:27.584Z,974.93
2022-09-14T09:37:27.044Z,974.82
2022-09-14T09:38:27.034Z,974.93
2022-09-14T09:39:27.025Z,974.81
2022-09-14T09:40:27.069Z,974.75
2022-09-14T09:41:26.987Z,974.72
2022-09-14T09:42:27.009Z,974.67
2022-09-14T09:43:47.969Z,974.72
2022-09-14T09:44:27.976Z,974.68
2022-09-14T09:45:26.957Z,974.71
2022-09-14T09:46:26.981Z,974.69
2022-09-14T09:47:26.936Z,974.82
2022-09-14T09:48:26.908Z,974.72
2022-09-14T09:49:26.892Z,974.70
2022-09-14T09:50:26.917Z,974.71
2022-09-14T09:51:26.853Z,974.64
2022-09-14T09:52:26.890Z,974.63
2022-09-14T09:53:26.869Z,974.57
2022-09-14T09:54:26.871Z,974.58
2022-09-14T09:55:26.860Z,974.66
2022-09-14T09:56:26.831Z,974.57
2022-09-14T09:57:26.806Z,974.46
2022-09-14T09:58:26.841Z,974.40
2022-09-14T09:59:27.794Z,974.30
2022-09-14T10:00:26.867Z,974.32
2022-09-14T10:01:26.846Z,974.26
2022-09-14T10:02:26.871Z,974.26
2022-09-14T10:03:26.763Z,974.25
2022-09-14T10:04:26.753Z,974.29
2022-09-14T10:05:27.440Z,974.22
2022-09-14T10:06:26.724Z,974.24
2022-09-14T10:07:27.379Z,974.23
2022-09-14T10:08:26.704Z,974.32
2022-09-14T10:09:27.406Z,974.26
2022-09-14T10:10:26.694Z,974.28
2022-09-14T10:11:26.686Z,974.32
2022-09-14T10:12:26.645Z,974.51
2022-09-14T10:13:26.636Z,974.18
2022-09-14T10:14:26.676Z,974.20
2022-09-14T10:15:26.607Z,974.20
2022-09-14T10:16:26.650Z,974.05
2022-09-14T10:17:26.563Z,974.06
2022-09-14T10:18:26.620Z,974.08
2022-09-14T10:19:26.552Z,974.13
2022-09-14T10:20:26.596Z,974.19
2022-09-14T10:21:26.558Z,974.22
2022-09-14T10:22:26.857Z,974.10
2022-09-14T10:23:26.560Z,974.06
2022-09-14T10:24:26.530Z,974.11
2022-09-14T10:25:26.511Z,974.12
2022-09-14T10:26:26.520Z,974.15
2022-09-14T10:27:26.475Z,974.00
2022-09-14T10:28:26.509Z,974.01
2022-09-14T10:29:26.492Z,974.00
2022-09-14T10:30:26.466Z,973.99
2022-09-14T10:31:26.462Z,973.95
2022-09-14T10:32:26.454Z,973.92
2022-09-14T10:33:26.452Z,973.95
2022-09-14T10:34:26.414Z,973.87
2022-09-14T10:35:26.414Z,973.85
2022-09-14T10:36:26.378Z,973.85
2022-09-14T10:37:26.379Z,973.81
2022-09-14T10:38:26.685Z,973.70
2022-09-14T10:39:26.516Z,973.84
2022-09-14T10:40:26.394Z,973.74
2022-09-14T10:41:26.324Z,973.68
2022-09-14T10:42:26.348Z,973.80
2022-09-14T10:43:26.356Z,973.61
2022-09-14T10:44:26.310Z,973.63
2022-09-14T10:45:26.297Z,973.64
2022-09-14T10:46:26.340Z,973.65
2022-09-14T10:47:26.309Z,973.64
2022-09-14T10:48:26.339Z,973.64
2022-09-14T10:49:26.990Z,973.66
2022-09-14T10:50:26.299Z,973.64
2022-09-14T10:51:26.368Z,973.58
2022-09-14T10:52:26.260Z,973.62
2022-09-14T10:53:26.322Z,973.56
2022-09-14T10:54:26.264Z,973.63
2022-09-14T10:55:26.901Z,973.61
2022-09-14T10:56:26.204Z,973.57
2022-09-14T10:57:26.452Z,973.59
2022-09-14T10:58:26.183Z,973.51
2022-09-14T10:59:26.633Z,973.44
2022-09-14T11:00:26.193Z,973.42
2022-09-14T11:01:26.926Z,973.37
2022-09-14T11:02:26.232Z,973.36
2022-09-14T11:03:26.145Z,973.29
2022-09-14T11:04:26.116Z,973.43
2022-09-14T11:05:26.236Z,973.31
2022-09-14T11:06:26.135Z,973.22
2022-09-14T11:07:26.075Z,973.23
2022-09-14T11:08:26.038Z,973.28
2022-09-14T11:09:26.069Z,973.26
2022-09-14T11:10:26.083Z,973.23
2022-09-14T11:11:26.027Z,973.20
2022-09-14T11:12:26.699Z,973.23
2022-09-14T11:13:26.007Z,973.14
2022-09-14T11:14:26.958Z,973.20
2022-09-14T11:15:25.988Z,973.17
2022-09-14T11:16:26.068Z,973.23
2022-09-14T11:17:25.969Z,973.21
2022-09-14T11:18:25.940Z,973.24
2022-09-14T11:19:25.940Z,973.19
2022-09-14T11:20:25.928Z,973.16
2022-09-14T11:21:25.911Z,973.10
2022-09-14T11:22:25.942Z,973.11
2022-09-14T11:23:25.910Z,973.19
2022-09-14T11:24:25.894Z,973.10
2022-09-14T11:25:25.877Z,973.10
2022-09-14T11:26:25.882Z,973.11
2022-09-14T11:27:25.827Z,973.08
2022-09-14T11:28:25.873Z,973.11
2022-09-14T11:29:25.844Z,973.05
2022-09-14T11:30:25.800Z,973.04
2022-09-14T11:31:25.834Z,973.05
2022-09-14T11:32:25.812Z,973.01
2022-09-14T11:33:30.404Z,973.09
2022-09-14T11:34:26.776Z,973.05
2022-09-14T11:35:25.750Z,973.05
2022-09-14T11:36:25.777Z,973.05
2022-09-14T11:37:25.746Z,973.09
2022-09-14T11:38:25.749Z,973.06
2022-09-14T11:39:25.718Z,973.07
2022-09-14T11:40:25.752Z,973.07
2022-09-14T11:41:25.693Z,973.00
2022-09-14T11:42:25.709Z,973.05
2022-09-14T11:43:25.740Z,973.00
2022-09-14T11:44:25.670Z,972.96
2022-09-14T11:45:25.731Z,972.91
2022-09-14T11:46:25.778Z,972.90
2022-09-14T11:47:25.672Z,972.88
2022-09-14T11:48:42.247Z,972.97
2022-09-14T11:49:26.624Z,972.94
2022-09-14T11:50:25.622Z,973.04
2022-09-14T11:51:25.603Z,972.98
2022-09-14T11:52:25.622Z,973.01
2022-09-14T11:53:25.584Z,972.97
2022-09-14T11:54:25.569Z,972.92
2022-09-14T11:55:25.556Z,972.94
2022-09-14T11:56:25.555Z,972.85
2022-09-14T11:57:25.525Z,972.86
2022-09-14T11:58:25.534Z,972.92
2022-09-14T11:59:25.516Z,972.84
2022-09-14T12:00:25.516Z,973.14
2022-09-14T12:01:25.486Z,972.88
2022-09-14T12:02:25.487Z,972.99
2022-09-14T12:03:25.531Z,973.02
2022-09-14T12:04:25.457Z,972.89
2022-09-14T12:05:25.458Z,972.92
2022-09-14T12:06:25.453Z,973.00
2022-09-14T12:07:25.440Z,973.06
2022-09-14T12:08:25.458Z,972.95
2022-09-14T12:09:25.399Z,972.91
2022-09-14T12:10:25.401Z,972.97
2022-09-14T12:11:25.370Z,973.04
2022-09-14T12:12:25.392Z,973.02
2022-09-14T12:13:25.382Z,973.10
2022-09-14T12:14:25.371Z,973.07
2022-09-14T12:15:25.331Z,973.03
2022-09-14T12:16:25.347Z,973.00
2022-09-14T12:17:41.265Z,973.06
2022-09-14T12:18:26.315Z,973.17
2022-09-14T12:19:25.314Z,973.15
2022-09-14T12:20:25.293Z,973.14
2022-09-14T12:21:25.277Z,973.08
2022-09-14T12:22:25.265Z,973.12
2022-09-14T12:23:25.261Z,973.10
2022-09-14T12:24:25.246Z,973.08
2022-09-14T12:25:25.237Z,973.11
2022-09-14T12:26:25.224Z,973.06
2022-09-14T12:27:25.208Z,973.05
2022-09-14T12:28:25.216Z,973.06